Hauptseite
METAR-TAF:

METAR-TAF

Flughäfen :

Amman, Jordanien

Flughafen Marka International

Breite: 31-59N, Länge: 035-59E, Höhe: 767 m

Beobachtung

Neuester Wetterbericht von vor 1 Stunde und 15 Minuten, um 00:00 UTC
Windstille
Temperatur 11°C
Luftfeuchtigkeit 71%
Luftdruck 1017 hPa
Sichtweite: 5000 m
trockener Dunst

METAR: OJAM 290000Z 00000KT 5000 HZ NSC 11/06 Q1017 NOSIG

Zeit: 03:15 (01:15 UTC)

Prognose

Neuester Wetterbericht von vor 3 Stunden und 0 Minuten, um 22:15 UTC
Gültige Prognose vom 29 um 00 UTC bis 30 um 06 UTC
Wind 2 kt aus unterschiedlichen Richtungen
Sichtweite: 6000 m
Wahrscheinlichkeit 30%
vom 29 um 02 UTC bis 29 um 06 UTC
Sichtweite: 3000 m
Rauch
Übergehend zu
vom 29 um 06 UTC bis 29 um 08 UTC
Wind 14 kt aus West/Nordwest
Sichtweite: 5000 m
trockener Dunst

TAF: OJAM 282215Z 2900/3006 VRB02KT 6000 NSC PROB30 2902/2906 3000 FU BECMG 2906/2908 29014KT 5000 HZ NSC

Wetterbeobachtungen und Prognosen von mehr als 4000 Flughäfen (METAR und TAF Bericht).

Die verfügbaren Stationen werden durch gelbe und rote Markierungen auf der Karte dargestellt.

Führen Sie die Maus auf sie, um den Namen der Station zu sehen.

Darauf klicken, um die Beobachtung von Wetterbeobachtungen und Prognosen zu sehen.

Um die Karte zu ändern : klicken Sie auf den grünen Tasten mit einem schwarzen Kreuz Zum Vergrößern, auf den grünen Button mit einem Gedankenstrich zu verkleinern, oder auf die grünen Pfeile für benachbarte Karten.


METAR-TAF: